createdAt,value
2022-10-09T00:02:07.259Z,1026.256
2022-10-09T00:07:07.193Z,1026.274
2022-10-09T00:12:07.269Z,1026.273
2022-10-09T00:17:07.445Z,1026.264
2022-10-09T00:22:07.164Z,1026.288
2022-10-09T00:27:07.461Z,1026.322
2022-10-09T00:32:09.895Z,1026.257
2022-10-09T00:37:08.499Z,1026.21
2022-10-09T00:42:07.687Z,1026.214
2022-10-09T00:47:07.437Z,1026.123
2022-10-09T00:52:09.614Z,1026.163
2022-10-09T00:57:07.513Z,1026.126
2022-10-09T01:02:07.372Z,1026.149
2022-10-09T01:07:13.304Z,1026.133
2022-10-09T01:12:11.598Z,1026.121
2022-10-09T01:17:11.897Z,1026.052
2022-10-09T01:22:15.461Z,1026.081
2022-10-09T01:27:09.205Z,1026.045
2022-10-09T01:32:08.406Z,1026.055
2022-10-09T01:37:07.418Z,1025.982
2022-10-09T01:42:08.073Z,1025.967
2022-10-09T01:47:07.575Z,1025.854
2022-10-09T01:52:12.442Z,1025.799
2022-10-09T01:57:08.822Z,1025.728
2022-10-09T02:02:08.229Z,1025.732
2022-10-09T02:07:07.446Z,1025.646
2022-10-09T02:12:10.558Z,1025.652
2022-10-09T02:17:09.941Z,1025.668
2022-10-09T02:22:10.565Z,1025.593
2022-10-09T02:27:07.218Z,1025.563
2022-10-09T02:32:07.174Z,1025.576
2022-10-09T02:37:07.329Z,1025.52
2022-10-09T02:42:07.482Z,1025.568
2022-10-09T02:47:07.106Z,1025.57
2022-10-09T02:52:07.194Z,1025.507
2022-10-09T02:57:07.427Z,1025.517
2022-10-09T03:02:08.271Z,1025.506
2022-10-09T03:07:10.721Z,1025.484
2022-10-09T03:12:08.472Z,1025.487
2022-10-09T03:17:07.214Z,1025.472
2022-10-09T03:22:06.986Z,1025.443
2022-10-09T03:27:07.275Z,1025.426
2022-10-09T03:32:07.098Z,1025.421
2022-10-09T03:37:09.191Z,1025.377
2022-10-09T03:42:07.387Z,1025.36
2022-10-09T03:47:07.280Z,1025.341
2022-10-09T03:52:08.207Z,1025.341
2022-10-09T03:57:07.010Z,1025.307
2022-10-09T04:02:07.063Z,1025.341
2022-10-09T04:07:07.119Z,1025.31
2022-10-09T04:12:07.304Z,1025.331
2022-10-09T04:17:07.126Z,1025.283
2022-10-09T04:22:07.543Z,1025.28
2022-10-09T04:27:06.941Z,1025.264
2022-10-09T04:32:07.327Z,1025.26
2022-10-09T04:37:07.372Z,1025.253
2022-10-09T04:42:07.050Z,1025.24
2022-10-09T04:47:11.141Z,1025.203
2022-10-09T04:52:07.150Z,1025.185
2022-10-09T04:57:07.271Z,1025.158
2022-10-09T05:02:07.418Z,1025.066
2022-10-09T05:07:07.140Z,1024.993
2022-10-09T05:12:07.311Z,1025.001
2022-10-09T05:17:14.235Z,1025.067
2022-10-09T05:22:06.983Z,1025.078
2022-10-09T05:27:07.283Z,1025.081
2022-10-09T05:32:07.241Z,1025.056
2022-10-09T05:37:07.455Z,1025.151
2022-10-09T05:42:09.472Z,1025.183
2022-10-09T05:47:11.565Z,1025.21
2022-10-09T05:52:07.047Z,1025.159
2022-10-09T05:57:07.172Z,1025.128
2022-10-09T06:02:08.326Z,1025.159
2022-10-09T06:07:07.395Z,1025.136
2022-10-09T06:12:08.366Z,1025.145
2022-10-09T06:17:09.669Z,1025.113
2022-10-09T06:22:06.988Z,1025.106
2022-10-09T06:27:07.282Z,1025.126
2022-10-09T06:32:07.008Z,1025.157
2022-10-09T06:37:07.155Z,1025.209
2022-10-09T06:42:07.226Z,1025.15
2022-10-09T06:47:08.368Z,1025.196
2022-10-09T06:52:07.390Z,1025.215
2022-10-09T06:57:06.997Z,1025.257
2022-10-09T07:02:07.625Z,1025.258
2022-10-09T07:07:07.262Z,1025.277
2022-10-09T07:12:06.820Z,1025.268
2022-10-09T07:17:07.397Z,1025.216
2022-10-09T07:22:11.066Z,1025.264
2022-10-09T07:27:07.627Z,1025.309
2022-10-09T07:32:10.526Z,1025.262
2022-10-09T07:37:07.274Z,1025.297
2022-10-09T07:42:07.421Z,1025.303
2022-10-09T07:47:06.955Z,1025.302
2022-10-09T07:52:07.356Z,1025.324
2022-10-09T07:57:07.112Z,1025.29
2022-10-09T08:02:09.170Z,1025.229
2022-10-09T08:07:07.230Z,1025.209
2022-10-09T08:12:06.968Z,1025.231
2022-10-09T08:17:07.074Z,1025.233
2022-10-09T08:22:07.192Z,1025.2
2022-10-09T08:27:07.058Z,1025.191
2022-10-09T08:32:06.986Z,1025.135
2022-10-09T08:37:08.668Z,1025.078
2022-10-09T08:42:06.937Z,1025.01
2022-10-09T08:47:11.349Z,1024.975
2022-10-09T08:52:13.031Z,1024.913
2022-10-09T08:57:10.926Z,1024.88
2022-10-09T09:02:10.289Z,1024.849
2022-10-09T09:07:14.940Z,1024.852
2022-10-09T09:12:09.378Z,1024.81
2022-10-09T09:17:10.383Z,1024.746
2022-10-09T09:22:08.127Z,1024.656
2022-10-09T09:27:11.961Z,1024.666
2022-10-09T09:32:07.357Z,1024.652
2022-10-09T09:37:07.456Z,1024.596
2022-10-09T09:42:15.129Z,1024.599
2022-10-09T09:47:07.210Z,1024.558
2022-10-09T09:52:08.783Z,1024.514
2022-10-09T09:57:19.463Z,1024.442
2022-10-09T10:02:08.611Z,1024.435
2022-10-09T10:07:06.896Z,1024.356
2022-10-09T10:12:09.409Z,1024.258
2022-10-09T10:17:07.112Z,1024.243
2022-10-09T10:22:08.594Z,1024.225
2022-10-09T10:27:09.764Z,1024.11
2022-10-09T10:32:16.482Z,1024.043
2022-10-09T10:37:13.501Z,1023.954
2022-10-09T10:42:10.142Z,1023.964
2022-10-09T10:47:10.606Z,1023.845
2022-10-09T10:52:15.794Z,1023.86
2022-10-09T10:57:14.276Z,1023.795
2022-10-09T11:02:26.420Z,1023.714
2022-10-09T11:07:12.976Z,1023.627
2022-10-09T11:12:24.579Z,1023.542
2022-10-09T11:17:10.457Z,1023.384
2022-10-09T11:22:11.104Z,1023.33
2022-10-09T11:27:13.023Z,1023.262
2022-10-09T11:32:10.245Z,1023.113
2022-10-09T11:37:10.819Z,1023.076
2022-10-09T11:42:11.836Z,1023.002
2022-10-09T11:47:14.341Z,1022.917
2022-10-09T11:52:14.429Z,1022.877
2022-10-09T11:57:12.886Z,1022.784
2022-10-09T12:02:18.377Z,1022.714
2022-10-09T12:07:09.333Z,1022.591
2022-10-09T12:12:10.118Z,1022.418
2022-10-09T12:17:19.559Z,1022.305
2022-10-09T12:22:10.419Z,1022.229
2022-10-09T12:27:11.527Z,1022.086
2022-10-09T12:32:08.982Z,1021.94
2022-10-09T12:37:28.326Z,1021.862
2022-10-09T12:42:07.330Z,1021.843
2022-10-09T12:47:11.229Z,1021.673
2022-10-09T12:52:07.268Z,1021.542
2022-10-09T12:57:08.583Z,1021.447
2022-10-09T13:02:07.139Z,1021.32
2022-10-09T13:07:09.996Z,1021.183
2022-10-09T13:12:08.985Z,1021.085
2022-10-09T13:17:07.427Z,1021.057
2022-10-09T13:22:23.618Z,1020.964
2022-10-09T13:27:06.779Z,1020.884
2022-10-09T13:32:09.137Z,1020.814
2022-10-09T13:37:06.880Z,1020.739
2022-10-09T13:42:07.084Z,1020.636
2022-10-09T13:47:06.818Z,1020.62
2022-10-09T13:52:09.850Z,1020.53
2022-10-09T13:57:10.366Z,1020.434
2022-10-09T14:02:06.800Z,1020.422
2022-10-09T14:07:07.205Z,1020.319
2022-10-09T14:12:07.052Z,1020.273
2022-10-09T14:17:07.097Z,1020.117
2022-10-09T14:22:07.065Z,1020.082
2022-10-09T14:27:11.637Z,1020.026
2022-10-09T14:32:06.856Z,1019.99
2022-10-09T14:37:18.443Z,1019.879
2022-10-09T14:42:07.050Z,1019.816
2022-10-09T14:47:06.944Z,1019.719
2022-10-09T14:52:07.143Z,1019.656
2022-10-09T14:57:06.942Z,1019.592
2022-10-09T15:02:06.998Z,1019.516
2022-10-09T15:07:07.077Z,1019.491
2022-10-09T15:12:06.841Z,1019.415
2022-10-09T15:17:07.537Z,1019.353
2022-10-09T15:22:07.133Z,1019.287
2022-10-09T15:27:07.661Z,1019.235
2022-10-09T15:32:09.032Z,1019.152
2022-10-09T15:37:06.872Z,1019.09
2022-10-09T15:42:07.273Z,1019.064
2022-10-09T15:47:07.078Z,1018.987
2022-10-09T15:52:06.766Z,1018.899
2022-10-09T15:57:07.367Z,1018.821
2022-10-09T16:02:08.045Z,1018.749
2022-10-09T16:07:07.066Z,1018.719
2022-10-09T16:12:06.775Z,1018.645
2022-10-09T16:17:10.975Z,1018.643
2022-10-09T16:22:06.750Z,1018.623
2022-10-09T16:27:07.345Z,1018.591
2022-10-09T16:32:06.832Z,1018.524
2022-10-09T16:37:09.087Z,1018.463
2022-10-09T16:42:07.645Z,1018.49
2022-10-09T16:47:06.804Z,1018.482
2022-10-09T16:52:06.913Z,1018.459
2022-10-09T16:57:07.150Z,1018.403
2022-10-09T17:02:07.134Z,1018.427
2022-10-09T17:07:06.941Z,1018.42
2022-10-09T17:12:07.624Z,1018.392
2022-10-09T17:17:06.835Z,1018.366
2022-10-09T17:22:08.831Z,1018.401
2022-10-09T17:27:10.369Z,1018.307
2022-10-09T17:32:09.081Z,1018.353
2022-10-09T17:37:06.786Z,1018.336
2022-10-09T17:42:07.166Z,1018.341
2022-10-09T17:47:09.282Z,1018.331
2022-10-09T17:52:07.017Z,1018.322
2022-10-09T17:57:11.713Z,1018.369
2022-10-09T18:02:06.898Z,1018.361
2022-10-09T18:07:08.391Z,1018.289
2022-10-09T18:12:07.110Z,1018.217
2022-10-09T18:17:07.073Z,1018.131
2022-10-09T18:22:09.221Z,1018.089
2022-10-09T18:27:06.935Z,1018.073
2022-10-09T18:32:07.262Z,1018.059
2022-10-09T18:37:09.172Z,1018.057
2022-10-09T18:42:07.110Z,1018.048
2022-10-09T18:47:08.469Z,1018.034
2022-10-09T18:52:06.925Z,1017.965
2022-10-09T18:57:08.037Z,1017.889
2022-10-09T19:02:06.838Z,1017.849
2022-10-09T19:07:09.427Z,1017.787
2022-10-09T19:12:06.994Z,1017.728
2022-10-09T19:17:07.746Z,1017.672
2022-10-09T19:22:07.679Z,1017.634
2022-10-09T19:27:06.795Z,1017.568
2022-10-09T19:32:07.252Z,1017.514
2022-10-09T19:37:06.858Z,1017.459
2022-10-09T19:42:10.269Z,1017.486
2022-10-09T19:47:09.962Z,1017.465
2022-10-09T19:52:07.329Z,1017.373
2022-10-09T19:57:06.844Z,1017.292
2022-10-09T20:02:11.655Z,1017.273
2022-10-09T20:07:09.065Z,1017.19
2022-10-09T20:12:07.828Z,1017.108
2022-10-09T20:17:06.863Z,1017.075
2022-10-09T20:22:06.968Z,1016.991
2022-10-09T20:27:06.832Z,1016.896
2022-10-09T20:32:06.844Z,1016.919
2022-10-09T20:37:07.348Z,1016.916
2022-10-09T20:42:06.710Z,1016.893
2022-10-09T20:47:07.425Z,1016.834
2022-10-09T20:52:06.879Z,1016.803
2022-10-09T20:57:06.840Z,1016.744
2022-10-09T21:02:08.182Z,1016.681
2022-10-09T21:07:07.081Z,1016.563
2022-10-09T21:12:06.763Z,1016.494
2022-10-09T21:17:06.894Z,1016.443
2022-10-09T21:22:09.294Z,1016.394
2022-10-09T21:27:06.655Z,1016.32
2022-10-09T21:32:06.895Z,1016.191
2022-10-09T21:37:21.055Z,1016.195
2022-10-09T21:42:09.694Z,1016.177
2022-10-09T21:47:06.636Z,1016.155
2022-10-09T21:52:06.994Z,1016.18
2022-10-09T21:57:06.602Z,1016.158
2022-10-09T22:02:07.545Z,1016.141
2022-10-09T22:07:06.726Z,1016.158
2022-10-09T22:12:06.929Z,1016.075
2022-10-09T22:17:06.696Z,1016.021
2022-10-09T22:22:06.699Z,1015.948
2022-10-09T22:27:09.364Z,1015.949
2022-10-09T22:32:06.881Z,1015.909
2022-10-09T22:37:06.782Z,1015.829
2022-10-09T22:42:06.694Z,1015.749
2022-10-09T22:47:06.846Z,1015.643
2022-10-09T22:52:07.670Z,1015.608
2022-10-09T22:57:09.593Z,1015.606
2022-10-09T23:02:07.025Z,1015.545
2022-10-09T23:07:06.712Z,1015.571
2022-10-09T23:12:06.935Z,1015.506
2022-10-09T23:17:06.603Z,1015.435
2022-10-09T23:22:06.911Z,1015.328
2022-10-09T23:27:06.752Z,1015.286
2022-10-09T23:32:06.723Z,1015.267
2022-10-09T23:37:06.706Z,1015.211
2022-10-09T23:42:06.778Z,1015.221
2022-10-09T23:47:06.763Z,1015.188
2022-10-09T23:52:10.137Z,1015.11
2022-10-09T23:57:06.611Z,1015.117
